EGOV

Anglesey Airport

Angelsey, United Kingdom
METAR EGOV 251450Z 20026KT 9999 FEW027 BKN060 BKN120 14/09 Q1032 BLU NOSIG
Observed Flight Rules
Sep-25 @ 14:50 UTC (57 minutes ago) Visual Flight Rules
Wind Visibility Clouds
200° at 26 knots 10,000+ meters
  • Few at 2,700' AGL
  • Broken at 6,000' AGL
  • Broken at 12,000' AGL
Temperatures Readings
Current 14°C / 57°F
Dewpoint 9°C / 48°F
Humidity 72%
Altimeter 30.47" Hg
Pressure 1032 hPa
Elevation 11
METAR EGOV 251450Z 20026KT 9999 FEW027 BKN060 BKN120 14/09 Q1032 BLU NOSIG
Observed Flight Rules
Sep-25 @ 14:50 UTC
(57 minutes ago)
VFR
Wind Visibility
200° at 26 knots 10,000+ meters
Clouds
  • Few at 2,700' AGL
  • Broken at 6,000' AGL
  • Broken at 12,000' AGL
Temperature Dewpoint
14°C / 57°F 9°C / 48°F
Humidity Altimeter Pressure
72% 30.47" Hg 1032 hPa